EGEO/OBN METAR and TAF weather

Enter ICAO airport designator
Station Type Date Time Source
EGEO METAR 2020/07/02 14:50 UTC NOAA

EGEO 021450Z 28012KT 9999 SCT035 14/09 Q1011


Station Type Date Time Source
EGEO Decoded METAR 2020/07/02 14:50 UTC NOAA

Station name not available
Jul 02, 2020 - 10:50 AM EDT / 2020.07.02 1450 UTC
Wind: from the W (280 degrees) at 14 MPH (12 KT):0
Visibility: greater than 7 mile(s):0
Sky conditions: partly cloudy
Temperature: 57 F (14 C)
Dew Point: 48 F (9 C)
Relative Humidity: 71%
Pressure (altimeter): 29.85 in. Hg (1011 hPa)
ob: EGEO 021450Z 28012KT 9999 SCT035 14/09 Q1011
cycle: 15

Station Type Date Time Source
EGEO TAF UTC NOAA

Error!

Example: see airport list